Tieton, Washington
Current Conditions -  °F | °C
As of 11:53 AM on Friday 28 Nov 2014 (Local Time) from KYKM Reporting Station
Broken Clouds Broken Clouds  
Wind Chill: 62°   Ceiling: 11000
Heat Index: 62°   Visibility: 10mi
Dew Point: 46°   Wind: 20mph
Humidity: 56%   Direction: 200°SSW
Pressure: 29.44"   Gusts: 30mph
Location:  46.7°N, 120.76°W
Report Text: KYKM 281953Z 20017G26KT 10SM SCT060 BKN110 17/08 A2944 RMK AO2 PK WND 22031/1858 SLP965 T01670078
Loading
Personal Weather Stations






























Interactive Weather Map New forecast layout! Learn more

10-Day Weather Forecast

Advertisements
Track Severe Weather on mobile